sensor_id;sensor_type;location;lat;lon;timestamp;P1;durP1;ratioP1;P2;durP2;ratioP2
67442;SDS011;54311;51.726;5.154;2022-12-10T00:00:31;72.32;;;45.20;;
67442;SDS011;54311;51.726;5.154;2022-12-10T00:02:56;67.82;;;44.13;;
67442;SDS011;54311;51.726;5.154;2022-12-10T00:05:22;71.47;;;44.85;;
67442;SDS011;54311;51.726;5.154;2022-12-10T00:07:47;75.47;;;45.45;;
67442;SDS011;54311;51.726;5.154;2022-12-10T00:10:12;75.22;;;44.88;;
67442;SDS011;54311;51.726;5.154;2022-12-10T00:12:38;73.57;;;45.00;;
67442;SDS011;54311;51.726;5.154;2022-12-10T00:15:03;62.58;;;40.45;;
67442;SDS011;54311;51.726;5.154;2022-12-10T00:17:29;62.63;;;41.42;;
67442;SDS011;54311;51.726;5.154;2022-12-10T00:19:54;72.88;;;43.20;;
67442;SDS011;54311;51.726;5.154;2022-12-10T00:22:19;71.55;;;43.47;;
67442;SDS011;54311;51.726;5.154;2022-12-10T00:24:45;69.88;;;42.83;;
67442;SDS011;54311;51.726;5.154;2022-12-10T00:27:11;65.93;;;41.40;;
67442;SDS011;54311;51.726;5.154;2022-12-10T00:29:36;67.88;;;39.97;;
67442;SDS011;54311;51.726;5.154;2022-12-10T00:32:01;66.82;;;40.63;;
67442;SDS011;54311;51.726;5.154;2022-12-10T00:34:30;68.35;;;42.20;;
67442;SDS011;54311;51.726;5.154;2022-12-10T00:36:56;75.05;;;44.28;;
67442;SDS011;54311;51.726;5.154;2022-12-10T00:39:21;79.55;;;44.08;;
67442;SDS011;54311;51.726;5.154;2022-12-10T00:41:47;78.90;;;44.28;;
67442;SDS011;54311;51.726;5.154;2022-12-10T00:44:13;71.55;;;44.08;;
67442;SDS011;54311;51.726;5.154;2022-12-10T00:46:38;72.07;;;43.13;;
67442;SDS011;54311;51.726;5.154;2022-12-10T00:49:04;78.25;;;46.10;;
67442;SDS011;54311;51.726;5.154;2022-12-10T00:51:29;74.90;;;42.70;;
67442;SDS011;54311;51.726;5.154;2022-12-10T00:53:55;86.43;;;46.47;;
67442;SDS011;54311;51.726;5.154;2022-12-10T00:56:23;80.55;;;45.17;;
67442;SDS011;54311;51.726;5.154;2022-12-10T00:58:50;76.93;;;43.15;;
67442;SDS011;54311;51.726;5.154;2022-12-10T01:01:49;86.18;;;44.80;;
67442;SDS011;54311;51.726;5.154;2022-12-10T01:04:09;84.50;;;43.70;;
67442;SDS011;54311;51.726;5.154;2022-12-10T01:06:40;81.40;;;44.55;;
67442;SDS011;54311;51.726;5.154;2022-12-10T01:11:38;75.25;;;42.80;;
67442;SDS011;54311;51.726;5.154;2022-12-10T01:14:09;85.28;;;46.67;;
67442;SDS011;54311;51.726;5.154;2022-12-10T01:16:35;93.00;;;46.90;;
67442;SDS011;54311;51.726;5.154;2022-12-10T01:19:01;93.93;;;48.55;;
67442;SDS011;54311;51.726;5.154;2022-12-10T01:21:28;87.13;;;45.40;;
67442;SDS011;54311;51.726;5.154;2022-12-10T01:23:54;94.05;;;45.65;;
67442;SDS011;54311;51.726;5.154;2022-12-10T01:26:22;92.75;;;47.17;;
67442;SDS011;54311;51.726;5.154;2022-12-10T01:28:49;88.25;;;46.22;;
67442;SDS011;54311;51.726;5.154;2022-12-10T01:31:22;92.85;;;46.38;;
67442;SDS011;54311;51.726;5.154;2022-12-10T01:36:19;91.38;;;45.05;;
67442;SDS011;54311;51.726;5.154;2022-12-10T01:38:49;82.82;;;42.47;;
67442;SDS011;54311;51.726;5.154;2022-12-10T01:41:22;83.53;;;42.33;;
67442;SDS011;54311;51.726;5.154;2022-12-10T01:46:16;91.10;;;42.20;;
67442;SDS011;54311;51.726;5.154;2022-12-10T01:48:42;84.05;;;43.55;;
67442;SDS011;54311;51.726;5.154;2022-12-10T01:51:07;88.72;;;45.60;;
67442;SDS011;54311;51.726;5.154;2022-12-10T01:53:33;89.40;;;45.50;;
67442;SDS011;54311;51.726;5.154;2022-12-10T01:55:58;84.65;;;45.10;;
67442;SDS011;54311;51.726;5.154;2022-12-10T01:58:24;75.57;;;41.45;;
67442;SDS011;54311;51.726;5.154;2022-12-10T02:00:51;86.95;;;46.10;;
67442;SDS011;54311;51.726;5.154;2022-12-10T02:03:51;81.80;;;41.67;;
67442;SDS011;54311;51.726;5.154;2022-12-10T02:09:02;80.10;;;43.40;;
67442;SDS011;54311;51.726;5.154;2022-12-10T02:16:44;76.00;;;41.97;;
67442;SDS011;54311;51.726;5.154;2022-12-10T02:21:47;81.47;;;40.63;;
67442;SDS011;54311;51.726;5.154;2022-12-10T02:24:15;74.80;;;43.30;;
67442;SDS011;54311;51.726;5.154;2022-12-10T02:29:57;75.30;;;41.20;;
67442;SDS011;54311;51.726;5.154;2022-12-10T02:32:25;73.15;;;39.45;;
67442;SDS011;54311;51.726;5.154;2022-12-10T02:34:56;75.13;;;42.00;;
67442;SDS011;54311;51.726;5.154;2022-12-10T02:37:27;78.03;;;42.58;;
67442;SDS011;54311;51.726;5.154;2022-12-10T02:39:55;75.78;;;40.92;;
67442;SDS011;54311;51.726;5.154;2022-12-10T02:42:23;80.65;;;42.15;;
67442;SDS011;54311;51.726;5.154;2022-12-10T02:44:49;76.47;;;41.35;;
67442;SDS011;54311;51.726;5.154;2022-12-10T02:47:15;84.13;;;44.33;;
67442;SDS011;54311;51.726;5.154;2022-12-10T02:49:41;79.78;;;41.72;;
67442;SDS011;54311;51.726;5.154;2022-12-10T02:52:09;76.47;;;41.85;;
67442;SDS011;54311;51.726;5.154;2022-12-10T02:54:38;82.15;;;42.90;;
67442;SDS011;54311;51.726;5.154;2022-12-10T02:57:12;90.80;;;44.00;;
67442;SDS011;54311;51.726;5.154;2022-12-10T03:02:29;97.50;;;43.55;;
67442;SDS011;54311;51.726;5.154;2022-12-10T03:05:02;101.13;;;47.20;;
67442;SDS011;54311;51.726;5.154;2022-12-10T03:07:35;105.68;;;48.75;;
67442;SDS011;54311;51.726;5.154;2022-12-10T03:10:51;103.30;;;48.17;;
67442;SDS011;54311;51.726;5.154;2022-12-10T03:12:48;113.55;;;49.97;;
67442;SDS011;54311;51.726;5.154;2022-12-10T03:15:16;111.55;;;49.25;;
67442;SDS011;54311;51.726;5.154;2022-12-10T03:17:43;117.05;;;52.63;;
67442;SDS011;54311;51.726;5.154;2022-12-10T03:20:11;113.10;;;50.88;;
67442;SDS011;54311;51.726;5.154;2022-12-10T03:22:38;121.68;;;54.22;;
67442;SDS011;54311;51.726;5.154;2022-12-10T03:25:06;133.93;;;56.30;;
67442;SDS011;54311;51.726;5.154;2022-12-10T03:27:32;120.80;;;55.05;;
67442;SDS011;54311;51.726;5.154;2022-12-10T03:29:57;122.20;;;53.20;;
67442;SDS011;54311;51.726;5.154;2022-12-10T03:32:24;133.35;;;55.65;;
67442;SDS011;54311;51.726;5.154;2022-12-10T03:34:51;124.07;;;54.30;;
67442;SDS011;54311;51.726;5.154;2022-12-10T03:37:18;139.77;;;55.25;;
67442;SDS011;54311;51.726;5.154;2022-12-10T03:39:45;116.05;;;51.13;;
67442;SDS011;54311;51.726;5.154;2022-12-10T03:42:11;120.30;;;51.55;;
67442;SDS011;54311;51.726;5.154;2022-12-10T03:44:37;131.80;;;52.38;;
67442;SDS011;54311;51.726;5.154;2022-12-10T03:47:04;133.48;;;56.67;;
67442;SDS011;54311;51.726;5.154;2022-12-10T03:49:31;125.85;;;55.63;;
67442;SDS011;54311;51.726;5.154;2022-12-10T03:51:56;135.20;;;55.38;;
67442;SDS011;54311;51.726;5.154;2022-12-10T03:54:22;135.95;;;55.83;;
67442;SDS011;54311;51.726;5.154;2022-12-10T03:56:47;128.07;;;53.50;;
67442;SDS011;54311;51.726;5.154;2022-12-10T03:59:13;126.72;;;54.00;;
67442;SDS011;54311;51.726;5.154;2022-12-10T04:01:41;120.25;;;54.20;;
67442;SDS011;54311;51.726;5.154;2022-12-10T04:04:07;124.97;;;54.05;;
67442;SDS011;54311;51.726;5.154;2022-12-10T04:06:32;114.35;;;50.30;;
67442;SDS011;54311;51.726;5.154;2022-12-10T04:08:58;126.93;;;54.05;;
67442;SDS011;54311;51.726;5.154;2022-12-10T04:11:23;113.95;;;53.45;;
67442;SDS011;54311;51.726;5.154;2022-12-10T04:13:49;133.18;;;54.30;;
67442;SDS011;54311;51.726;5.154;2022-12-10T04:16:34;124.97;;;53.85;;
67442;SDS011;54311;51.726;5.154;2022-12-10T04:21:36;112.70;;;51.85;;
67442;SDS011;54311;51.726;5.154;2022-12-10T04:24:21;128.10;;;52.90;;
67442;SDS011;54311;51.726;5.154;2022-12-10T04:27:23;114.78;;;51.30;;
67442;SDS011;54311;51.726;5.154;2022-12-10T04:29:50;124.10;;;54.30;;
67442;SDS011;54311;51.726;5.154;2022-12-10T04:32:15;115.50;;;50.60;;
67442;SDS011;54311;51.726;5.154;2022-12-10T04:34:41;116.05;;;53.50;;
67442;SDS011;54311;51.726;5.154;2022-12-10T04:37:07;107.65;;;51.42;;
67442;SDS011;54311;51.726;5.154;2022-12-10T04:39:32;123.80;;;53.15;;
67442;SDS011;54311;51.726;5.154;2022-12-10T04:41:58;112.80;;;51.60;;
67442;SDS011;54311;51.726;5.154;2022-12-10T04:44:24;122.90;;;51.92;;
67442;SDS011;54311;51.726;5.154;2022-12-10T04:46:50;142.50;;;53.78;;
67442;SDS011;54311;51.726;5.154;2022-12-10T04:49:15;118.57;;;53.28;;
67442;SDS011;54311;51.726;5.154;2022-12-10T04:51:41;177.27;;;53.42;;
67442;SDS011;54311;51.726;5.154;2022-12-10T04:54:06;119.80;;;52.95;;
67442;SDS011;54311;51.726;5.154;2022-12-10T04:56:32;119.78;;;53.00;;
67442;SDS011;54311;51.726;5.154;2022-12-10T04:58:58;128.07;;;55.22;;
67442;SDS011;54311;51.726;5.154;2022-12-10T05:01:24;134.45;;;58.17;;
67442;SDS011;54311;51.726;5.154;2022-12-10T05:03:50;137.60;;;55.42;;
67442;SDS011;54311;51.726;5.154;2022-12-10T05:06:16;135.73;;;53.78;;
67442;SDS011;54311;51.726;5.154;2022-12-10T05:08:42;179.23;;;54.63;;
67442;SDS011;54311;51.726;5.154;2022-12-10T05:11:09;147.93;;;54.00;;
67442;SDS011;54311;51.726;5.154;2022-12-10T05:13:36;126.05;;;51.10;;
67442;SDS011;54311;51.726;5.154;2022-12-10T05:16:02;153.90;;;54.13;;
67442;SDS011;54311;51.726;5.154;2022-12-10T05:18:29;138.85;;;54.40;;
67442;SDS011;54311;51.726;5.154;2022-12-10T05:20:54;136.48;;;52.38;;
67442;SDS011;54311;51.726;5.154;2022-12-10T05:23:20;138.98;;;52.92;;
67442;SDS011;54311;51.726;5.154;2022-12-10T05:26:01;134.10;;;53.70;;
67442;SDS011;54311;51.726;5.154;2022-12-10T05:28:31;149.65;;;56.20;;
67442;SDS011;54311;51.726;5.154;2022-12-10T05:30:59;136.93;;;55.05;;
67442;SDS011;54311;51.726;5.154;2022-12-10T05:33:24;128.93;;;52.13;;
67442;SDS011;54311;51.726;5.154;2022-12-10T05:35:54;138.93;;;51.72;;
67442;SDS011;54311;51.726;5.154;2022-12-10T05:38:20;136.63;;;52.42;;
67442;SDS011;54311;51.726;5.154;2022-12-10T05:40:46;124.38;;;52.40;;
67442;SDS011;54311;51.726;5.154;2022-12-10T05:43:11;122.60;;;50.58;;
67442;SDS011;54311;51.726;5.154;2022-12-10T05:45:36;128.55;;;50.17;;
67442;SDS011;54311;51.726;5.154;2022-12-10T05:48:02;135.15;;;51.55;;
67442;SDS011;54311;51.726;5.154;2022-12-10T05:50:27;125.28;;;50.78;;
67442;SDS011;54311;51.726;5.154;2022-12-10T05:52:53;122.15;;;49.63;;
67442;SDS011;54311;51.726;5.154;2022-12-10T05:55:18;120.68;;;48.50;;
67442;SDS011;54311;51.726;5.154;2022-12-10T05:57:43;132.05;;;49.72;;
67442;SDS011;54311;51.726;5.154;2022-12-10T06:00:09;127.28;;;50.58;;
67442;SDS011;54311;51.726;5.154;2022-12-10T06:02:35;120.18;;;49.53;;
67442;SDS011;54311;51.726;5.154;2022-12-10T06:05:00;121.70;;;49.20;;
67442;SDS011;54311;51.726;5.154;2022-12-10T06:07:25;133.73;;;52.05;;
67442;SDS011;54311;51.726;5.154;2022-12-10T06:09:51;121.80;;;50.25;;
67442;SDS011;54311;51.726;5.154;2022-12-10T06:12:16;120.72;;;50.30;;
67442;SDS011;54311;51.726;5.154;2022-12-10T06:14:42;140.70;;;47.30;;
67442;SDS011;54311;51.726;5.154;2022-12-10T06:17:07;113.20;;;44.95;;
67442;SDS011;54311;51.726;5.154;2022-12-10T06:19:32;116.43;;;48.88;;
67442;SDS011;54311;51.726;5.154;2022-12-10T06:21:58;118.90;;;47.88;;
67442;SDS011;54311;51.726;5.154;2022-12-10T06:24:23;131.90;;;47.58;;
67442;SDS011;54311;51.726;5.154;2022-12-10T06:26:49;112.32;;;45.05;;
67442;SDS011;54311;51.726;5.154;2022-12-10T06:29:14;116.32;;;48.00;;
67442;SDS011;54311;51.726;5.154;2022-12-10T06:31:40;117.28;;;48.28;;
67442;SDS011;54311;51.726;5.154;2022-12-10T06:34:05;116.50;;;46.50;;
67442;SDS011;54311;51.726;5.154;2022-12-10T06:36:30;116.05;;;45.85;;
67442;SDS011;54311;51.726;5.154;2022-12-10T06:38:56;127.63;;;46.85;;
67442;SDS011;54311;51.726;5.154;2022-12-10T06:41:21;127.22;;;45.17;;
67442;SDS011;54311;51.726;5.154;2022-12-10T06:43:47;100.88;;;43.72;;
67442;SDS011;54311;51.726;5.154;2022-12-10T06:46:14;132.60;;;45.80;;
67442;SDS011;54311;51.726;5.154;2022-12-10T06:48:41;111.20;;;45.00;;
67442;SDS011;54311;51.726;5.154;2022-12-10T06:51:06;115.50;;;42.97;;
67442;SDS011;54311;51.726;5.154;2022-12-10T06:53:33;105.15;;;44.42;;
67442;SDS011;54311;51.726;5.154;2022-12-10T06:55:59;110.05;;;42.20;;
67442;SDS011;54311;51.726;5.154;2022-12-10T06:58:26;94.15;;;40.60;;
67442;SDS011;54311;51.726;5.154;2022-12-10T07:00:53;109.75;;;42.08;;
67442;SDS011;54311;51.726;5.154;2022-12-10T07:03:18;101.63;;;38.63;;
67442;SDS011;54311;51.726;5.154;2022-12-10T07:05:44;94.60;;;39.45;;
67442;SDS011;54311;51.726;5.154;2022-12-10T07:08:09;123.47;;;41.50;;
67442;SDS011;54311;51.726;5.154;2022-12-10T07:10:36;104.15;;;39.67;;
67442;SDS011;54311;51.726;5.154;2022-12-10T07:13:01;84.43;;;36.40;;
67442;SDS011;54311;51.726;5.154;2022-12-10T07:15:27;87.63;;;36.15;;
67442;SDS011;54311;51.726;5.154;2022-12-10T07:17:53;91.65;;;39.50;;
67442;SDS011;54311;51.726;5.154;2022-12-10T07:20:18;77.03;;;35.42;;
67442;SDS011;54311;51.726;5.154;2022-12-10T07:22:44;89.68;;;38.38;;
67442;SDS011;54311;51.726;5.154;2022-12-10T07:25:09;80.43;;;36.05;;
67442;SDS011;54311;51.726;5.154;2022-12-10T07:27:35;88.07;;;34.95;;
67442;SDS011;54311;51.726;5.154;2022-12-10T07:30:01;78.57;;;36.75;;
67442;SDS011;54311;51.726;5.154;2022-12-10T07:32:26;93.10;;;35.70;;
67442;SDS011;54311;51.726;5.154;2022-12-10T07:34:52;93.55;;;40.33;;
67442;SDS011;54311;51.726;5.154;2022-12-10T07:37:17;95.32;;;38.40;;
67442;SDS011;54311;51.726;5.154;2022-12-10T07:39:43;88.20;;;39.10;;
67442;SDS011;54311;51.726;5.154;2022-12-10T07:42:08;80.63;;;40.60;;
67442;SDS011;54311;51.726;5.154;2022-12-10T07:44:34;100.90;;;38.83;;
67442;SDS011;54311;51.726;5.154;2022-12-10T07:46:59;92.00;;;38.28;;
67442;SDS011;54311;51.726;5.154;2022-12-10T07:49:24;76.95;;;34.88;;
67442;SDS011;54311;51.726;5.154;2022-12-10T07:51:50;83.32;;;37.03;;
67442;SDS011;54311;51.726;5.154;2022-12-10T07:54:16;71.40;;;35.30;;
67442;SDS011;54311;51.726;5.154;2022-12-10T07:56:42;80.22;;;36.88;;
67442;SDS011;54311;51.726;5.154;2022-12-10T07:59:08;71.13;;;31.77;;
67442;SDS011;54311;51.726;5.154;2022-12-10T08:01:33;72.28;;;35.25;;
67442;SDS011;54311;51.726;5.154;2022-12-10T08:03:58;70.75;;;34.38;;
67442;SDS011;54311;51.726;5.154;2022-12-10T08:06:26;74.68;;;33.13;;
67442;SDS011;54311;51.726;5.154;2022-12-10T08:08:52;72.50;;;33.88;;
67442;SDS011;54311;51.726;5.154;2022-12-10T08:11:18;78.72;;;35.53;;
67442;SDS011;54311;51.726;5.154;2022-12-10T08:13:45;80.47;;;35.58;;
67442;SDS011;54311;51.726;5.154;2022-12-10T08:16:12;79.80;;;36.15;;
67442;SDS011;54311;51.726;5.154;2022-12-10T08:18:42;80.10;;;36.72;;
67442;SDS011;54311;51.726;5.154;2022-12-10T08:21:09;79.50;;;35.40;;
67442;SDS011;54311;51.726;5.154;2022-12-10T08:23:37;67.88;;;33.78;;
67442;SDS011;54311;51.726;5.154;2022-12-10T08:26:06;82.55;;;36.05;;
67442;SDS011;54311;51.726;5.154;2022-12-10T08:28:33;75.07;;;35.20;;
67442;SDS011;54311;51.726;5.154;2022-12-10T08:30:59;73.00;;;36.85;;
67442;SDS011;54311;51.726;5.154;2022-12-10T08:33:24;76.78;;;35.53;;
67442;SDS011;54311;51.726;5.154;2022-12-10T08:35:50;68.95;;;33.97;;
67442;SDS011;54311;51.726;5.154;2022-12-10T08:38:15;69.28;;;32.67;;
67442;SDS011;54311;51.726;5.154;2022-12-10T08:40:41;74.00;;;34.33;;
67442;SDS011;54311;51.726;5.154;2022-12-10T08:43:06;83.63;;;38.00;;
67442;SDS011;54311;51.726;5.154;2022-12-10T08:45:32;82.90;;;36.67;;
67442;SDS011;54311;51.726;5.154;2022-12-10T08:47:57;89.88;;;36.85;;
67442;SDS011;54311;51.726;5.154;2022-12-10T08:50:22;77.80;;;33.47;;
67442;SDS011;54311;51.726;5.154;2022-12-10T08:52:48;89.15;;;37.58;;
67442;SDS011;54311;51.726;5.154;2022-12-10T08:55:13;88.32;;;39.55;;
67442;SDS011;54311;51.726;5.154;2022-12-10T08:57:38;97.45;;;41.90;;
67442;SDS011;54311;51.726;5.154;2022-12-10T09:00:04;94.32;;;43.83;;
67442;SDS011;54311;51.726;5.154;2022-12-10T09:02:30;94.45;;;42.00;;
67442;SDS011;54311;51.726;5.154;2022-12-10T09:04:55;103.13;;;40.60;;
67442;SDS011;54311;51.726;5.154;2022-12-10T09:07:21;101.18;;;42.00;;
67442;SDS011;54311;51.726;5.154;2022-12-10T09:09:46;88.15;;;37.42;;
67442;SDS011;54311;51.726;5.154;2022-12-10T09:12:12;104.95;;;40.22;;
67442;SDS011;54311;51.726;5.154;2022-12-10T09:14:37;95.13;;;38.88;;
67442;SDS011;54311;51.726;5.154;2022-12-10T09:17:05;95.75;;;37.17;;
67442;SDS011;54311;51.726;5.154;2022-12-10T09:19:31;86.38;;;36.78;;
67442;SDS011;54311;51.726;5.154;2022-12-10T09:21:56;86.55;;;38.85;;
67442;SDS011;54311;51.726;5.154;2022-12-10T09:24:21;76.03;;;36.22;;
67442;SDS011;54311;51.726;5.154;2022-12-10T09:26:47;93.63;;;39.35;;
67442;SDS011;54311;51.726;5.154;2022-12-10T09:29:12;98.35;;;39.83;;
67442;SDS011;54311;51.726;5.154;2022-12-10T09:31:38;80.35;;;36.30;;
67442;SDS011;54311;51.726;5.154;2022-12-10T09:34:03;86.53;;;37.83;;
67442;SDS011;54311;51.726;5.154;2022-12-10T09:36:29;82.10;;;36.33;;
67442;SDS011;54311;51.726;5.154;2022-12-10T09:38:54;98.80;;;38.60;;
67442;SDS011;54311;51.726;5.154;2022-12-10T09:44:08;87.88;;;39.38;;
67442;SDS011;54311;51.726;5.154;2022-12-10T09:49:08;81.22;;;36.13;;
67442;SDS011;54311;51.726;5.154;2022-12-10T09:51:42;81.72;;;37.55;;
67442;SDS011;54311;51.726;5.154;2022-12-10T09:54:30;93.78;;;39.33;;
67442;SDS011;54311;51.726;5.154;2022-12-10T09:56:57;90.07;;;36.53;;
67442;SDS011;54311;51.726;5.154;2022-12-10T09:59:24;79.82;;;36.50;;
67442;SDS011;54311;51.726;5.154;2022-12-10T10:04:55;79.07;;;35.65;;
67442;SDS011;54311;51.726;5.154;2022-12-10T10:07:24;86.85;;;37.28;;
67442;SDS011;54311;51.726;5.154;2022-12-10T10:09:55;79.38;;;37.17;;
67442;SDS011;54311;51.726;5.154;2022-12-10T10:12:22;77.85;;;35.10;;
67442;SDS011;54311;51.726;5.154;2022-12-10T10:14:47;82.40;;;37.28;;
67442;SDS011;54311;51.726;5.154;2022-12-10T10:17:21;78.63;;;38.63;;
67442;SDS011;54311;51.726;5.154;2022-12-10T10:19:51;75.03;;;33.83;;
67442;SDS011;54311;51.726;5.154;2022-12-10T10:22:16;77.47;;;35.30;;
67442;SDS011;54311;51.726;5.154;2022-12-10T10:24:43;78.57;;;35.20;;
67442;SDS011;54311;51.726;5.154;2022-12-10T10:27:16;82.40;;;38.33;;
67442;SDS011;54311;51.726;5.154;2022-12-10T10:29:44;73.20;;;35.78;;
67442;SDS011;54311;51.726;5.154;2022-12-10T10:32:14;79.15;;;37.17;;
67442;SDS011;54311;51.726;5.154;2022-12-10T10:34:40;85.53;;;39.45;;
67442;SDS011;54311;51.726;5.154;2022-12-10T10:37:06;74.10;;;36.45;;
67442;SDS011;54311;51.726;5.154;2022-12-10T10:39:32;72.07;;;36.55;;
67442;SDS011;54311;51.726;5.154;2022-12-10T10:42:00;71.90;;;34.20;;
67442;SDS011;54311;51.726;5.154;2022-12-10T10:44:36;75.20;;;35.92;;
67442;SDS011;54311;51.726;5.154;2022-12-10T10:47:03;79.30;;;36.15;;
67442;SDS011;54311;51.726;5.154;2022-12-10T10:49:50;70.53;;;34.10;;
67442;SDS011;54311;51.726;5.154;2022-12-10T10:52:16;82.47;;;38.20;;
67442;SDS011;54311;51.726;5.154;2022-12-10T10:54:45;72.28;;;35.72;;
67442;SDS011;54311;51.726;5.154;2022-12-10T11:00:06;67.60;;;34.55;;
67442;SDS011;54311;51.726;5.154;2022-12-10T11:02:36;79.20;;;33.72;;
67442;SDS011;54311;51.726;5.154;2022-12-10T11:05:46;70.85;;;34.42;;
67442;SDS011;54311;51.726;5.154;2022-12-10T11:08:04;69.47;;;34.55;;
67442;SDS011;54311;51.726;5.154;2022-12-10T11:10:32;74.82;;;35.55;;
67442;SDS011;54311;51.726;5.154;2022-12-10T11:13:05;78.97;;;35.70;;
67442;SDS011;54311;51.726;5.154;2022-12-10T11:18:01;79.45;;;34.85;;
67442;SDS011;54311;51.726;5.154;2022-12-10T11:20:32;72.95;;;35.38;;
67442;SDS011;54311;51.726;5.154;2022-12-10T11:23:00;75.97;;;38.00;;
67442;SDS011;54311;51.726;5.154;2022-12-10T11:42:23;76.80;;;33.78;;
67442;SDS011;54311;51.726;5.154;2022-12-10T11:45:19;81.90;;;35.97;;
67442;SDS011;54311;51.726;5.154;2022-12-10T11:47:57;73.13;;;33.70;;
67442;SDS011;54311;51.726;5.154;2022-12-10T12:12:59;73.60;;;32.47;;
67442;SDS011;54311;51.726;5.154;2022-12-10T12:18:23;79.15;;;33.72;;
67442;SDS011;54311;51.726;5.154;2022-12-10T12:20:58;84.45;;;37.05;;
67442;SDS011;54311;51.726;5.154;2022-12-10T12:26:39;91.80;;;38.42;;
67442;SDS011;54311;51.726;5.154;2022-12-10T12:31:57;74.53;;;32.15;;
67442;SDS011;54311;51.726;5.154;2022-12-10T12:34:28;82.47;;;35.00;;
67442;SDS011;54311;51.726;5.154;2022-12-10T12:37:20;82.20;;;33.72;;
67442;SDS011;54311;51.726;5.154;2022-12-10T12:40:09;79.03;;;34.38;;
67442;SDS011;54311;51.726;5.154;2022-12-10T12:45:34;83.45;;;35.45;;
67442;SDS011;54311;51.726;5.154;2022-12-10T12:50:45;78.18;;;34.35;;
67442;SDS011;54311;51.726;5.154;2022-12-10T12:53:14;81.53;;;35.03;;
67442;SDS011;54311;51.726;5.154;2022-12-10T12:58:31;80.13;;;34.72;;
67442;SDS011;54311;51.726;5.154;2022-12-10T13:01:12;90.93;;;37.92;;
67442;SDS011;54311;51.726;5.154;2022-12-10T13:03:50;79.57;;;35.38;;
67442;SDS011;54311;51.726;5.154;2022-12-10T13:08:53;90.10;;;39.35;;
67442;SDS011;54311;51.726;5.154;2022-12-10T13:11:30;84.68;;;36.03;;
67442;SDS011;54311;51.726;5.154;2022-12-10T13:14:02;83.25;;;36.05;;
67442;SDS011;54311;51.726;5.154;2022-12-10T13:27:02;87.25;;;38.67;;
67442;SDS011;54311;51.726;5.154;2022-12-10T13:29:28;90.10;;;37.05;;
67442;SDS011;54311;51.726;5.154;2022-12-10T13:31:55;92.28;;;37.85;;
67442;SDS011;54311;51.726;5.154;2022-12-10T13:34:34;95.65;;;39.92;;
67442;SDS011;54311;51.726;5.154;2022-12-10T13:49:55;84.90;;;38.63;;
67442;SDS011;54311;51.726;5.154;2022-12-10T13:52:25;84.13;;;36.15;;
67442;SDS011;54311;51.726;5.154;2022-12-10T13:57:44;93.75;;;40.25;;
67442;SDS011;54311;51.726;5.154;2022-12-10T14:00:15;93.80;;;40.97;;
67442;SDS011;54311;51.726;5.154;2022-12-10T14:08:40;101.28;;;44.75;;
67442;SDS011;54311;51.726;5.154;2022-12-10T14:11:06;117.80;;;57.97;;
67442;SDS011;54311;51.726;5.154;2022-12-10T14:13:42;92.30;;;42.38;;
67442;SDS011;54311;51.726;5.154;2022-12-10T14:16:14;92.47;;;40.03;;
67442;SDS011;54311;51.726;5.154;2022-12-10T14:18:43;98.32;;;44.15;;
67442;SDS011;54311;51.726;5.154;2022-12-10T14:21:11;104.78;;;44.53;;
67442;SDS011;54311;51.726;5.154;2022-12-10T14:23:39;111.93;;;53.88;;
67442;SDS011;54311;51.726;5.154;2022-12-10T14:26:12;99.18;;;42.13;;
67442;SDS011;54311;51.726;5.154;2022-12-10T14:28:59;97.15;;;42.13;;
67442;SDS011;54311;51.726;5.154;2022-12-10T14:31:27;102.00;;;43.80;;
67442;SDS011;54311;51.726;5.154;2022-12-10T14:34:01;100.18;;;42.75;;
67442;SDS011;54311;51.726;5.154;2022-12-10T14:36:30;96.15;;;39.90;;
67442;SDS011;54311;51.726;5.154;2022-12-10T14:38:57;92.00;;;38.97;;
67442;SDS011;54311;51.726;5.154;2022-12-10T14:41:23;97.72;;;39.25;;
67442;SDS011;54311;51.726;5.154;2022-12-10T14:43:49;91.50;;;40.08;;
67442;SDS011;54311;51.726;5.154;2022-12-10T14:46:17;92.40;;;38.88;;
67442;SDS011;54311;51.726;5.154;2022-12-10T14:48:46;88.15;;;38.00;;
67442;SDS011;54311;51.726;5.154;2022-12-10T14:51:15;98.75;;;42.75;;
67442;SDS011;54311;51.726;5.154;2022-12-10T14:53:44;95.43;;;42.53;;
67442;SDS011;54311;51.726;5.154;2022-12-10T14:56:11;104.63;;;45.85;;
67442;SDS011;54311;51.726;5.154;2022-12-10T14:59:01;94.47;;;44.33;;
67442;SDS011;54311;51.726;5.154;2022-12-10T15:01:31;99.90;;;42.30;;
67442;SDS011;54311;51.726;5.154;2022-12-10T15:04:00;93.88;;;43.30;;
67442;SDS011;54311;51.726;5.154;2022-12-10T15:06:27;102.72;;;50.08;;
67442;SDS011;54311;51.726;5.154;2022-12-10T15:08:54;111.82;;;53.55;;
67442;SDS011;54311;51.726;5.154;2022-12-10T15:11:21;108.90;;;51.95;;
67442;SDS011;54311;51.726;5.154;2022-12-10T15:13:50;112.03;;;50.92;;
67442;SDS011;54311;51.726;5.154;2022-12-10T15:16:19;95.28;;;43.03;;
67442;SDS011;54311;51.726;5.154;2022-12-10T15:18:53;97.70;;;41.83;;
67442;SDS011;54311;51.726;5.154;2022-12-10T15:21:20;94.07;;;40.50;;
67442;SDS011;54311;51.726;5.154;2022-12-10T15:23:47;96.35;;;43.40;;
67442;SDS011;54311;51.726;5.154;2022-12-10T15:26:23;102.95;;;44.13;;
67442;SDS011;54311;51.726;5.154;2022-12-10T15:28:50;102.78;;;43.63;;
67442;SDS011;54311;51.726;5.154;2022-12-10T15:33:54;110.35;;;53.13;;
67442;SDS011;54311;51.726;5.154;2022-12-10T15:41:42;109.18;;;50.53;;
67442;SDS011;54311;51.726;5.154;2022-12-10T15:49:39;100.32;;;45.35;;
67442;SDS011;54311;51.726;5.154;2022-12-10T15:52:04;103.85;;;47.00;;
67442;SDS011;54311;51.726;5.154;2022-12-10T15:54:36;99.63;;;42.85;;
67442;SDS011;54311;51.726;5.154;2022-12-10T15:57:16;101.40;;;43.63;;
67442;SDS011;54311;51.726;5.154;2022-12-10T15:59:43;115.50;;;51.25;;
67442;SDS011;54311;51.726;5.154;2022-12-10T16:02:24;104.13;;;51.58;;
67442;SDS011;54311;51.726;5.154;2022-12-10T16:04:51;106.70;;;46.95;;
67442;SDS011;54311;51.726;5.154;2022-12-10T16:07:17;106.97;;;42.22;;
67442;SDS011;54311;51.726;5.154;2022-12-10T16:09:43;97.72;;;42.85;;
67442;SDS011;54311;51.726;5.154;2022-12-10T16:12:12;99.70;;;40.55;;
67442;SDS011;54311;51.726;5.154;2022-12-10T16:14:44;111.35;;;44.40;;
67442;SDS011;54311;51.726;5.154;2022-12-10T16:19:38;105.80;;;42.00;;
67442;SDS011;54311;51.726;5.154;2022-12-10T16:22:04;107.80;;;47.53;;
67442;SDS011;54311;51.726;5.154;2022-12-10T16:24:30;102.95;;;44.45;;
67442;SDS011;54311;51.726;5.154;2022-12-10T16:26:55;110.00;;;45.20;;
67442;SDS011;54311;51.726;5.154;2022-12-10T16:29:21;114.57;;;51.78;;
67442;SDS011;54311;51.726;5.154;2022-12-10T16:31:46;113.18;;;42.35;;
67442;SDS011;54311;51.726;5.154;2022-12-10T16:34:11;96.68;;;38.22;;
67442;SDS011;54311;51.726;5.154;2022-12-10T16:36:37;105.30;;;39.78;;
67442;SDS011;54311;51.726;5.154;2022-12-10T16:39:02;98.07;;;39.28;;
67442;SDS011;54311;51.726;5.154;2022-12-10T16:41:28;98.82;;;39.47;;
67442;SDS011;54311;51.726;5.154;2022-12-10T16:43:53;98.75;;;44.20;;
67442;SDS011;54311;51.726;5.154;2022-12-10T16:46:19;98.10;;;41.50;;
67442;SDS011;54311;51.726;5.154;2022-12-10T16:48:44;114.78;;;46.45;;